ロメ の空港の天気 - METARとTAF

ロメ空港 ( DXXX / LFW ) - トーゴ ロメ
飛行場実況気象(Metar)
観測時間07/29 02:00 GMT (07/29 02:00 UTC)
風向・風速西 2m/s
視程10km以上
天気現象
少しの雲 雲底高度 300m
気温24℃
湿度94%
気圧1013hPa
METARDXXX 290200Z 27003KT 9999 FEW010 24/23 Q1013 NOSIG
過去の天気等 Google飛行場航空写真 Wunderground天気予報

過去48時間のMETAR

飛行場予報(TAF)
発表時間: 7/28 23:00 GMT (7/28 23:00 UTC)
予報対象時間: 29日0時 GMT ~ 30日6時 GMT
風向・風速南西 5m/s
視程10km以上
少しの雲 雲底高度 300m
TAF DXXX 282300Z 2900/3006 22010KT 9999 FEW010